Weather reports worldwide

Advertisment
Baza, Spain (8424): temperature & dewpoint: 12.01.2020 12:00:00 - 18.01.2020 12:00:00 (CET)Baza, Spain (8424): wind speed & gusts: 12.01.2020 12:00:00 - 18.01.2020 12:00:00 (CET)Baza, Spain (8424): wind direction: 12.01.2020 12:00:00 - 18.01.2020 12:00:00 (CET)Baza, Spain (8424): visibility: 12.01.2020 12:00:00 - 18.01.2020 12:00:00 (CET)Baza, Spain (8424): sunshine duration: 12.01.2020 12:00:00 - 18.01.2020 12:00:00 (CET)Baza, Spain (8424): precipitation: 12.01.2020 12:00:00 - 18.01.2020 12:00:00 (CET)
Date & Time tt [°C] td [°C] ff [km/h] ff [kn] fx [km/h] fx [kn] dd vv [km] sd [min] rr [mm]
18.01.2020 12:00:00 4,2 3,4 5 3 8 4 SSE 6 0 1,8
18.01.2020 11:00:00 3,8 2,5 5 3 9 5 NNE 12 0 0,0
18.01.2020 10:00:00 3,6 2,3 3 2 8 4 WNW 20 0 0,0
18.01.2020 09:00:00 2,0 1,5 4 2 8 4 SE 16 0 0,0
18.01.2020 08:00:00 1,4 1,1 7 4 13 7 SSE 13 0 0,0
18.01.2020 07:00:00 0,9 0,0 8 4 10 5 SSE 8 0 -
18.01.2020 06:00:00 2,3 1,3 2 1 11 6 SE 11 0 0,0
18.01.2020 05:00:00 2,2 0,4 4 2 7 4 SSE 19 0 0,0
18.01.2020 04:00:00 2,8 0,0 2 1 6 4 SSW 20 0 0,0
18.01.2020 03:00:00 4,0 -0,5 3 2 9 5 SSE 20 0 0,0
18.01.2020 02:00:00 4,7 -0,3 6 4 14 7 S 20 0 0,0
18.01.2020 01:00:00 4,0 0,9 10 5 14 7 SSE 20 0 -
18.01.2020 00:00:00 4,5 1,3 4 2 12 7 WSW 20 0 0,0
17.01.2020 23:00:00 4,5 1,5 6 4 12 6 SSE 20 0 0,0
17.01.2020 22:00:00 5,9 2,1 8 5 14 8 S 20 0 0,0
17.01.2020 21:00:00 8,9 3,0 10 5 16 9 W 20 0 0,0
17.01.2020 20:00:00 8,7 3,0 11 6 21 12 WSW 20 0 0,0
17.01.2020 19:00:00 9,9 3,4 13 7 21 11 W 13 0 -
17.01.2020 18:00:00 12,8 3,9 4 2 22 12 W 20 11 0,0
17.01.2020 17:00:00 14,0 3,4 13 7 23 12 WNW 20 60 0,0
17.01.2020 16:00:00 14,3 2,5 15 8 28 15 WNW 20 60 0,0
17.01.2020 15:00:00 13,8 2,1 16 8 25 14 NW 20 60 0,0
17.01.2020 14:00:00 13,5 0,9 16 9 28 15 W 20 60 0,0
17.01.2020 13:00:00 12,8 1,1 16 9 26 14 WNW 20 60 -
17.01.2020 12:00:00 11,0 0,6 10 6 18 10 NW 20 60 0,0
17.01.2020 11:00:00 4,3 0,9 5 3 10 6 S 20 35 0,0
17.01.2020 10:00:00 0,8 -1,2 5 3 11 6 NNE 19 0 0,0
17.01.2020 09:00:00 0,6 -0,5 4 2 11 6 WSW 13 0 0,0
17.01.2020 08:00:00 0,9 -0,5 5 3 8 4 SSE 17 0 0,0
17.01.2020 07:00:00 0,7 -0,3 3 2 9 5 SSW 13 0 -
17.01.2020 06:00:00 -1,1 -2,5 4 2 10 6 SSW 14 0 0,0
17.01.2020 05:00:00 -0,3 -2,0 6 3 11 6 SSE 20 0 0,0
17.01.2020 04:00:00 0,4 -1,4 6 3 13 7 SSW 20 0 0,0
17.01.2020 03:00:00 0,5 -1,7 8 5 9 5 SSE 20 0 0,0
17.01.2020 02:00:00 0,6 -2,2 4 2 7 4 S 20 0 0,0
17.01.2020 01:00:00 1,1 -2,2 8 5 11 6 SSE 20 0 -
17.01.2020 00:00:00 1,1 -2,2 9 5 11 6 SSE 20 0 0,0
16.01.2020 23:00:00 1,5 -2,0 6 3 11 6 SSW 20 0 0,0
16.01.2020 22:00:00 1,9 -2,0 7 4 13 7 SSE 20 0 0,0
16.01.2020 21:00:00 3,0 -1,4 12 6 13 7 S 20 0 0,0
16.01.2020 20:00:00 4,6 -1,7 10 5 11 6 SSE 20 0 0,0
16.01.2020 19:00:00 9,4 -1,7 8 5 11 6 SSW 8 0 -
16.01.2020 18:00:00 14,2 -2,0 4 2 10 5 NNW 20 6 0,0
16.01.2020 17:00:00 14,3 -2,7 5 3 12 7 NNE 20 59 0,0
16.01.2020 16:00:00 13,9 -2,5 5 3 11 6 NNE 20 60 0,0
16.01.2020 15:00:00 12,7 -2,0 5 3 11 6 NNE 20 60 0,0
16.01.2020 14:00:00 10,6 -0,3 6 4 11 6 N 20 60 0,0
16.01.2020 13:00:00 8,2 0,4 4 2 8 5 N 19 60 -
16.01.2020 12:00:00 4,4 -0,3 5 3 8 5 NNW 7 60 0,0
16.01.2020 11:00:00 0,5 -0,7 2 1 8 5 SE 15 35 0,0
16.01.2020 10:00:00 -1,5 -2,0 4 2 7 4 WNW 20 0 0,0
16.01.2020 09:00:00 -4,4 -5,1 5 3 10 5 SSE 13 0 0,0
16.01.2020 08:00:00 -4,3 -5,1 6 4 9 5 SSE 13 0 0,0
16.01.2020 07:00:00 -3,0 -3,9 3 1 7 4 S 16 0 -
16.01.2020 06:00:00 -3,3 -4,2 2 1 8 4 SSE 20 0 0,0
16.01.2020 05:00:00 -2,9 -3,9 3 2 9 5 SW 20 0 0,0
16.01.2020 04:00:00 -2,8 -3,9 8 4 9 5 S 16 0 0,0
16.01.2020 03:00:00 -1,8 -3,0 2 1 7 4 W 16 0 0,0
16.01.2020 02:00:00 -1,3 -3,0 3 2 5 3 WSW 18 0 0,0
16.01.2020 01:00:00 -0,1 -2,2 4 2 9 5 W 16 0 -
16.01.2020 00:00:00 0,6 -2,2 8 4 12 7 SSE 20 0 0,0
15.01.2020 23:00:00 1,0 -1,7 11 6 13 7 SSE 20 0 0,0
15.01.2020 22:00:00 1,1 -1,7 9 5 11 6 SE 20 0 0,0
15.01.2020 21:00:00 2,6 -1,2 7 4 9 5 ESE 20 0 0,0
15.01.2020 20:00:00 5,3 -1,2 7 4 12 6 ESE 20 0 0,0
15.01.2020 19:00:00 9,3 -1,2 8 5 12 6 WSW 20 0 -
15.01.2020 18:00:00 13,7 -0,7 6 3 13 7 WNW 20 10 0,0
15.01.2020 17:00:00 14,2 -2,0 11 6 16 9 WNW 20 59 0,0
15.01.2020 16:00:00 14,1 -0,5 8 5 16 9 NW 20 60 0,0
15.01.2020 15:00:00 11,8 2,9 3 1 9 5 N 17 60 0,0
15.01.2020 14:00:00 8,5 2,5 5 3 9 5 NNE 12 60 0,0
15.01.2020 13:00:00 6,7 2,3 4 2 8 4 W 11 60 -
15.01.2020 12:00:00 3,1 1,7 3 2 8 4 N 8 60 0,0
15.01.2020 11:00:00 0,2 0,0 4 2 7 4 W 12 35 0,0
15.01.2020 10:00:00 -1,9 -2,0 2 1 7 4 SSW 8 0 0,0
15.01.2020 09:00:00 -3,0 -3,0 5 3 8 5 SSE 9 0 0,0
15.01.2020 08:00:00 -2,7 -2,7 4 2 9 5 WSW 9 0 0,0
15.01.2020 07:00:00 -3,2 -3,6 6 3 9 5 SE 1,0 0 -
15.01.2020 06:00:00 -2,7 -3,0 4 2 7 4 S 0,8 0 0,0
15.01.2020 05:00:00 -1,9 -2,2 4 2 8 4 NW 9 0 0,0
15.01.2020 04:00:00 -1,6 -2,0 5 3 10 5 S 4,3 0 0,0
15.01.2020 03:00:00 -1,8 -2,7 5 3 8 5 SE 6 0 0,0
15.01.2020 02:00:00 -1,2 -2,5 2 1 7 4 W 4,5 0 0,0
15.01.2020 01:00:00 0,0 -1,7 4 2 13 7 SSW 13 0 -
15.01.2020 00:00:00 0,2 -1,4 10 5 13 7 S 10 0 0,0
14.01.2020 23:00:00 1,6 -1,4 7 4 15 8 S 17 0 0,0
14.01.2020 22:00:00 4,3 1,1 10 5 19 10 W 20 0 0,0
14.01.2020 21:00:00 5,3 1,1 8 4 21 11 SW 20 0 0,0
14.01.2020 20:00:00 4,7 1,1 6 3 17 9 ESE 20 0 0,0
14.01.2020 19:00:00 5,9 0,6 8 4 10 6 S 20 0 -
14.01.2020 18:00:00 8,5 0,4 5 3 17 9 SW 20 5 0,0
14.01.2020 17:00:00 8,6 0,2 10 5 19 11 W 20 4 0,0
14.01.2020 16:00:00 8,9 -0,3 10 6 19 10 WNW 20 47 0,0
14.01.2020 15:00:00 8,8 0,2 3 2 10 6 NNE 20 60 0,0
14.01.2020 14:00:00 8,0 0,0 6 3 10 6 N 20 60 0,0
14.01.2020 13:00:00 6,9 -0,3 3 2 10 5 NNE 20 60 -
14.01.2020 12:00:00 3,8 -1,4 3 2 7 4 WNW 16 60 0,0
14.01.2020 11:00:00 -0,1 -1,7 3 2 8 4 WNW 20 35 0,0
14.01.2020 10:00:00 -2,6 -3,0 1 1 7 4 ESE 15 0 0,0
14.01.2020 09:00:00 -4,6 -5,4 6 3 8 5 SSE 13 0 0,0
14.01.2020 08:00:00 -4,3 -5,1 4 2 7 4 WSW 11 0 0,0
14.01.2020 07:00:00 -3,9 -5,1 3 2 5 3 W 11 0 -
14.01.2020 06:00:00 -3,4 -4,8 3 1 8 4 W 19 0 0,0
14.01.2020 05:00:00 -3,3 -4,2 2 1 10 5 NNW 17 0 0,0
14.01.2020 04:00:00 -2,7 -3,9 5 3 14 8 NW 16 0 0,0
14.01.2020 03:00:00 -3,3 -4,5 10 5 12 7 SSE 19 0 0,0
14.01.2020 02:00:00 -2,5 -4,2 5 3 12 6 SSW 20 0 0,0
14.01.2020 01:00:00 -1,2 -4,2 4 2 11 6 SSW 20 0 -
14.01.2020 00:00:00 0,0 -4,2 7 4 11 6 S 20 0 0,0
13.01.2020 23:00:00 2,6 -2,5 6 3 18 10 SW 20 0 0,0
13.01.2020 22:00:00 4,8 -3,6 12 6 18 10 WSW 20 0 0,0
13.01.2020 21:00:00 5,5 -3,3 6 4 17 9 WSW 20 0 0,0
13.01.2020 20:00:00 6,4 -3,0 5 3 18 10 WSW 20 0 0,0
13.01.2020 19:00:00 7,9 -3,0 8 4 17 9 WSW 20 0 -
13.01.2020 18:00:00 10,3 -2,7 9 5 19 10 W 20 4 0,0
13.01.2020 17:00:00 11,6 -2,2 11 6 26 14 WNW 20 58 0,0
13.01.2020 16:00:00 11,8 -4,5 13 7 29 16 WNW 20 60 0,0
13.01.2020 15:00:00 10,8 0,0 8 4 14 8 N 20 60 0,0
13.01.2020 14:00:00 9,5 0,2 3 2 8 5 NE 20 60 0,0
13.01.2020 13:00:00 7,5 0,2 2 1 8 5 WSW 17 60 -
13.01.2020 12:00:00 2,4 -0,7 6 3 8 5 NNW 18 60 0,0
13.01.2020 11:00:00 -0,8 -1,4 5 3 8 4 NW 17 35 0,0
13.01.2020 10:00:00 -2,8 -3,3 2 1 5 3 WNW 15 0 0,0
13.01.2020 09:00:00 -5,5 -6,0 3 2 7 4 S 18 0 0,0
13.01.2020 08:00:00 -5,3 -6,0 5 3 6 4 SSE 17 0 0,0
13.01.2020 07:00:00 -4,9 -5,7 3 1 5 3 S 16 0 -
13.01.2020 06:00:00 -4,2 -4,8 4 2 6 3 SSW 15 0 0,0
13.01.2020 05:00:00 -3,8 -4,5 4 2 11 6 SSW 18 0 0,0
13.01.2020 04:00:00 -3,7 -4,5 4 2 7 4 S 9 0 0,0
13.01.2020 03:00:00 -3,2 -4,5 1 1 8 4 S 14 0 0,0
13.01.2020 02:00:00 -2,6 -3,6 6 3 9 5 S 20 0 0,0
13.01.2020 01:00:00 -2,3 -3,3 7 4 8 5 S 12 0 -
13.01.2020 00:00:00 -1,5 -3,3 5 3 6 3 SSW 18 0 0,0
12.01.2020 23:00:00 -0,1 -2,7 5 3 11 6 S 20 0 0,0
12.01.2020 22:00:00 0,4 -2,2 11 6 13 7 SE 20 0 0,0
12.01.2020 21:00:00 1,6 -1,4 11 6 15 8 SSE 20 0 0,0
12.01.2020 20:00:00 3,8 -1,2 9 5 13 7 SSE 20 0 0,0
12.01.2020 19:00:00 7,6 -0,5 5 3 8 4 SW 18 2 -
12.01.2020 18:00:00 10,6 0,0 8 4 21 11 NNW 20 9 0,0
12.01.2020 17:00:00 11,5 0,2 11 6 23 13 NW 20 50 0,0
12.01.2020 16:00:00 11,3 -1,0 15 8 25 14 WNW 20 60 0,0
12.01.2020 15:00:00 11,0 1,3 15 8 26 14 NW 20 60 0,0
12.01.2020 14:00:00 8,8 1,5 6 4 10 5 N 20 60 0,0
12.01.2020 13:00:00 6,0 0,4 4 2 11 6 N 19 60 -
12.01.2020 12:00:00 2,6 0,4 7 4 11 6 N 17 60 0,0

tt = temperature
td = dewpoint
ff = wind speed
fx = gusts
dd = wind direction
vv = visibility
sd = sunshine duration
rr = precipitation

Next stations